sensor_id;sensor_type;location;lat;lon;timestamp;pressure;altitude;pressure_sealevel;temperature;humidity
62072;BME280;48031;48.542;13.232;2022-12-31T00:01:58;97383.63;;;11.21;65.43
62072;BME280;48031;48.542;13.232;2022-12-31T00:06:11;97380.06;;;11.42;65.31
62072;BME280;48031;48.542;13.232;2022-12-31T00:10:14;97389.72;;;10.79;66.42
62072;BME280;48031;48.542;13.232;2022-12-31T00:14:15;97382.13;;;11.03;65.80
62072;BME280;48031;48.542;13.232;2022-12-31T00:18:17;97377.22;;;11.05;65.84
62072;BME280;48031;48.542;13.232;2022-12-31T00:22:19;97377.47;;;11.04;65.14
62072;BME280;48031;48.542;13.232;2022-12-31T00:26:23;97381.22;;;11.51;64.85
62072;BME280;48031;48.542;13.232;2022-12-31T00:30:25;97378.94;;;11.43;64.72
62072;BME280;48031;48.542;13.232;2022-12-31T00:34:27;97382.88;;;11.52;64.32
62072;BME280;48031;48.542;13.232;2022-12-31T00:38:29;97390.66;;;12.07;62.36
62072;BME280;48031;48.542;13.232;2022-12-31T00:42:31;97388.25;;;11.47;64.53
62072;BME280;48031;48.542;13.232;2022-12-31T00:46:33;97387.34;;;11.37;64.13
62072;BME280;48031;48.542;13.232;2022-12-31T00:50:34;97399.34;;;11.41;64.02
62072;BME280;48031;48.542;13.232;2022-12-31T00:54:36;97411.06;;;11.73;63.44
62072;BME280;48031;48.542;13.232;2022-12-31T00:58:38;97418.53;;;11.88;63.29
62072;BME280;48031;48.542;13.232;2022-12-31T01:02:40;97424.06;;;11.98;62.43
62072;BME280;48031;48.542;13.232;2022-12-31T01:06:43;97435.56;;;11.78;63.19
62072;BME280;48031;48.542;13.232;2022-12-31T01:10:48;97441.50;;;12.02;62.71
62072;BME280;48031;48.542;13.232;2022-12-31T01:15:09;97437.22;;;11.52;63.91
62072;BME280;48031;48.542;13.232;2022-12-31T01:19:18;97442.97;;;12.15;63.04
62072;BME280;48031;48.542;13.232;2022-12-31T01:23:20;97455.28;;;11.90;62.56
62072;BME280;48031;48.542;13.232;2022-12-31T01:27:22;97460.91;;;11.84;63.20
62072;BME280;48031;48.542;13.232;2022-12-31T01:31:24;97466.03;;;12.07;61.99
62072;BME280;48031;48.542;13.232;2022-12-31T01:35:26;97462.91;;;11.66;62.96
62072;BME280;48031;48.542;13.232;2022-12-31T01:39:28;97453.78;;;11.78;63.20
62072;BME280;48031;48.542;13.232;2022-12-31T01:43:43;97448.72;;;12.23;62.84
62072;BME280;48031;48.542;13.232;2022-12-31T01:47:51;97457.22;;;12.74;61.65
62072;BME280;48031;48.542;13.232;2022-12-31T01:52:08;97455.84;;;12.76;60.97
62072;BME280;48031;48.542;13.232;2022-12-31T01:56:12;97450.34;;;12.19;62.04
62072;BME280;48031;48.542;13.232;2022-12-31T02:00:15;97445.47;;;11.89;62.85
62072;BME280;48031;48.542;13.232;2022-12-31T02:04:17;97441.81;;;11.74;62.88
62072;BME280;48031;48.542;13.232;2022-12-31T02:08:21;97444.09;;;11.87;62.56
62072;BME280;48031;48.542;13.232;2022-12-31T02:12:23;97446.75;;;12.14;62.00
62072;BME280;48031;48.542;13.232;2022-12-31T02:33:53;97450.09;;;12.68;60.86
62072;BME280;48031;48.542;13.232;2022-12-31T02:38:04;97459.78;;;13.01;60.17
62072;BME280;48031;48.542;13.232;2022-12-31T02:42:09;97458.16;;;12.47;61.07
62072;BME280;48031;48.542;13.232;2022-12-31T02:54:48;97454.44;;;12.64;60.57
62072;BME280;48031;48.542;13.232;2022-12-31T03:03:51;97456.03;;;12.18;61.81
62072;BME280;48031;48.542;13.232;2022-12-31T03:08:21;97453.66;;;12.73;61.01
62072;BME280;48031;48.542;13.232;2022-12-31T03:12:26;97457.03;;;12.48;61.41
62072;BME280;48031;48.542;13.232;2022-12-31T03:16:47;97456.56;;;12.15;61.79
62072;BME280;48031;48.542;13.232;2022-12-31T03:20:49;97464.00;;;11.92;62.63
62072;BME280;48031;48.542;13.232;2022-12-31T03:25:16;97465.91;;;13.28;59.67
62072;BME280;48031;48.542;13.232;2022-12-31T03:29:34;97471.88;;;12.68;60.06
62072;BME280;48031;48.542;13.232;2022-12-31T03:33:38;97476.38;;;12.10;62.57
62072;BME280;48031;48.542;13.232;2022-12-31T03:37:41;97474.03;;;11.87;62.39
62072;BME280;48031;48.542;13.232;2022-12-31T03:41:43;97477.94;;;12.01;62.24
62072;BME280;48031;48.542;13.232;2022-12-31T03:45:49;97494.75;;;12.67;60.79
62072;BME280;48031;48.542;13.232;2022-12-31T03:49:52;97499.81;;;12.48;60.71
62072;BME280;48031;48.542;13.232;2022-12-31T03:53:54;97495.44;;;12.15;61.60
62072;BME280;48031;48.542;13.232;2022-12-31T03:57:56;97495.34;;;12.00;61.74
62072;BME280;48031;48.542;13.232;2022-12-31T04:01:57;97479.13;;;11.56;63.44
62072;BME280;48031;48.542;13.232;2022-12-31T04:05:59;97489.06;;;11.73;63.05
62072;BME280;48031;48.542;13.232;2022-12-31T04:10:03;97481.16;;;12.30;62.08
62072;BME280;48031;48.542;13.232;2022-12-31T04:14:05;97492.09;;;12.03;62.25
62072;BME280;48031;48.542;13.232;2022-12-31T04:18:07;97487.28;;;11.83;62.25
62072;BME280;48031;48.542;13.232;2022-12-31T04:22:09;97494.44;;;11.89;62.43
62072;BME280;48031;48.542;13.232;2022-12-31T04:26:11;97504.22;;;11.63;62.81
62072;BME280;48031;48.542;13.232;2022-12-31T04:30:13;97500.06;;;11.83;62.55
62072;BME280;48031;48.542;13.232;2022-12-31T04:34:15;97507.41;;;11.82;62.71
62072;BME280;48031;48.542;13.232;2022-12-31T04:38:17;97519.28;;;11.98;62.25
62072;BME280;48031;48.542;13.232;2022-12-31T04:42:19;97519.59;;;12.38;60.78
62072;BME280;48031;48.542;13.232;2022-12-31T04:46:23;97523.09;;;13.13;59.44
62072;BME280;48031;48.542;13.232;2022-12-31T04:50:25;97518.47;;;13.13;58.49
62072;BME280;48031;48.542;13.232;2022-12-31T04:54:27;97539.31;;;12.56;61.20
62072;BME280;48031;48.542;13.232;2022-12-31T04:58:29;97540.19;;;13.65;57.65
62072;BME280;48031;48.542;13.232;2022-12-31T05:02:31;97541.16;;;13.29;58.65
62072;BME280;48031;48.542;13.232;2022-12-31T05:06:33;97551.47;;;13.17;59.64
62072;BME280;48031;48.542;13.232;2022-12-31T05:10:36;97543.84;;;13.19;58.96
62072;BME280;48031;48.542;13.232;2022-12-31T05:14:38;97540.19;;;13.03;59.32
62072;BME280;48031;48.542;13.232;2022-12-31T05:18:39;97554.19;;;12.43;61.15
62072;BME280;48031;48.542;13.232;2022-12-31T05:22:41;97561.56;;;12.42;60.33
62072;BME280;48031;48.542;13.232;2022-12-31T05:26:43;97548.59;;;12.60;60.07
62072;BME280;48031;48.542;13.232;2022-12-31T05:30:49;97550.81;;;12.63;60.74
62072;BME280;48031;48.542;13.232;2022-12-31T05:34:52;97555.66;;;12.56;59.99
62072;BME280;48031;48.542;13.232;2022-12-31T05:38:55;97556.06;;;12.37;61.12
62072;BME280;48031;48.542;13.232;2022-12-31T05:42:58;97558.19;;;11.77;62.72
62072;BME280;48031;48.542;13.232;2022-12-31T05:47:00;97553.50;;;12.58;60.44
62072;BME280;48031;48.542;13.232;2022-12-31T05:51:02;97548.50;;;13.23;58.06
62072;BME280;48031;48.542;13.232;2022-12-31T05:55:04;97543.31;;;13.27;58.25
62072;BME280;48031;48.542;13.232;2022-12-31T05:59:06;97550.47;;;12.91;58.80
62072;BME280;48031;48.542;13.232;2022-12-31T06:03:08;97567.63;;;12.91;59.39
62072;BME280;48031;48.542;13.232;2022-12-31T06:07:10;97583.97;;;12.55;60.94
62072;BME280;48031;48.542;13.232;2022-12-31T06:11:12;97598.97;;;12.94;59.94
62072;BME280;48031;48.542;13.232;2022-12-31T06:15:14;97588.25;;;12.82;59.77
62072;BME280;48031;48.542;13.232;2022-12-31T06:19:16;97602.88;;;13.03;58.50
62072;BME280;48031;48.542;13.232;2022-12-31T06:23:18;97593.78;;;13.29;58.10
62072;BME280;48031;48.542;13.232;2022-12-31T06:27:19;97593.16;;;13.17;58.94
62072;BME280;48031;48.542;13.232;2022-12-31T06:31:21;97605.94;;;13.12;59.26
62072;BME280;48031;48.542;13.232;2022-12-31T06:35:23;97604.66;;;13.24;59.09
62072;BME280;48031;48.542;13.232;2022-12-31T06:39:25;97610.09;;;13.19;59.06
62072;BME280;48031;48.542;13.232;2022-12-31T06:43:27;97603.84;;;13.24;59.00
62072;BME280;48031;48.542;13.232;2022-12-31T06:47:29;97594.41;;;12.63;60.72
62072;BME280;48031;48.542;13.232;2022-12-31T06:51:30;97612.22;;;12.48;61.57
62072;BME280;48031;48.542;13.232;2022-12-31T06:55:32;97593.06;;;12.06;62.60
62072;BME280;48031;48.542;13.232;2022-12-31T06:59:36;97598.56;;;12.12;62.57
62072;BME280;48031;48.542;13.232;2022-12-31T07:04:12;97607.03;;;12.79;61.22
62072;BME280;48031;48.542;13.232;2022-12-31T07:09:36;97595.53;;;13.09;60.80
62072;BME280;48031;48.542;13.232;2022-12-31T07:18:02;97603.41;;;13.42;59.56
62072;BME280;48031;48.542;13.232;2022-12-31T07:22:13;97593.19;;;13.80;58.42
62072;BME280;48031;48.542;13.232;2022-12-31T07:26:18;97598.97;;;12.57;60.79
62072;BME280;48031;48.542;13.232;2022-12-31T07:30:32;97598.44;;;12.92;61.22
62072;BME280;48031;48.542;13.232;2022-12-31T07:34:46;97610.22;;;13.03;60.54
62072;BME280;48031;48.542;13.232;2022-12-31T07:39:04;97611.81;;;13.36;59.78
62072;BME280;48031;48.542;13.232;2022-12-31T07:43:32;97614.44;;;13.83;58.43
62072;BME280;48031;48.542;13.232;2022-12-31T07:47:36;97621.06;;;13.97;58.14
62072;BME280;48031;48.542;13.232;2022-12-31T07:51:38;97610.81;;;13.57;58.41
62072;BME280;48031;48.542;13.232;2022-12-31T07:55:40;97614.44;;;13.78;58.52
62072;BME280;48031;48.542;13.232;2022-12-31T07:59:57;97629.63;;;14.26;57.52
62072;BME280;48031;48.542;13.232;2022-12-31T08:04:09;97632.38;;;15.17;55.91
62072;BME280;48031;48.542;13.232;2022-12-31T08:13:12;97653.63;;;14.24;57.10
62072;BME280;48031;48.542;13.232;2022-12-31T08:17:16;97652.91;;;14.53;56.96
62072;BME280;48031;48.542;13.232;2022-12-31T08:22:15;97658.09;;;15.01;56.26
62072;BME280;48031;48.542;13.232;2022-12-31T08:26:26;97656.66;;;15.44;55.00
62072;BME280;48031;48.542;13.232;2022-12-31T08:38:53;97688.69;;;14.67;56.62
62072;BME280;48031;48.542;13.232;2022-12-31T08:47:30;97679.09;;;15.61;55.09
62072;BME280;48031;48.542;13.232;2022-12-31T08:51:39;97683.78;;;14.54;58.08
62072;BME280;48031;48.542;13.232;2022-12-31T08:55:43;97687.91;;;15.02;57.11
62072;BME280;48031;48.542;13.232;2022-12-31T08:59:48;97695.28;;;15.07;55.72
62072;BME280;48031;48.542;13.232;2022-12-31T09:03:58;97699.06;;;15.66;54.97
62072;BME280;48031;48.542;13.232;2022-12-31T09:08:16;97697.44;;;15.65;55.93
62072;BME280;48031;48.542;13.232;2022-12-31T09:12:57;97701.28;;;15.59;55.43
62072;BME280;48031;48.542;13.232;2022-12-31T09:21:41;97682.06;;;15.85;56.65
62072;BME280;48031;48.542;13.232;2022-12-31T09:30:10;97676.03;;;15.77;56.54
62072;BME280;48031;48.542;13.232;2022-12-31T09:34:21;97685.19;;;16.22;55.79
62072;BME280;48031;48.542;13.232;2022-12-31T09:38:30;97681.22;;;16.48;54.89
62072;BME280;48031;48.542;13.232;2022-12-31T09:48:03;97677.38;;;16.44;55.23
62072;BME280;48031;48.542;13.232;2022-12-31T09:56:40;97689.84;;;16.76;53.89
62072;BME280;48031;48.542;13.232;2022-12-31T10:00:57;97692.06;;;16.69;53.48
62072;BME280;48031;48.542;13.232;2022-12-31T10:22:53;97677.00;;;16.71;52.62
62072;BME280;48031;48.542;13.232;2022-12-31T10:31:16;97655.06;;;16.22;53.38
62072;BME280;48031;48.542;13.232;2022-12-31T10:35:35;97658.63;;;17.05;51.39
62072;BME280;48031;48.542;13.232;2022-12-31T10:57:22;97649.34;;;18.07;50.52
62072;BME280;48031;48.542;13.232;2022-12-31T11:06:24;97634.59;;;19.61;47.67
62072;BME280;48031;48.542;13.232;2022-12-31T11:15:22;97648.66;;;17.72;52.05
62072;BME280;48031;48.542;13.232;2022-12-31T11:24:27;97639.38;;;16.82;53.91
62072;BME280;48031;48.542;13.232;2022-12-31T11:32:49;97654.59;;;16.59;53.82
62072;BME280;48031;48.542;13.232;2022-12-31T11:55:00;97635.84;;;18.29;51.37
62072;BME280;48031;48.542;13.232;2022-12-31T11:59:09;97645.03;;;18.81;49.96
62072;BME280;48031;48.542;13.232;2022-12-31T12:03:20;97640.81;;;18.08;50.66
62072;BME280;48031;48.542;13.232;2022-12-31T12:07:22;97643.88;;;17.83;52.15
62072;BME280;48031;48.542;13.232;2022-12-31T12:11:26;97630.94;;;18.07;51.79
62072;BME280;48031;48.542;13.232;2022-12-31T12:15:31;97638.91;;;18.27;51.97
62072;BME280;48031;48.542;13.232;2022-12-31T12:19:44;97649.47;;;17.97;51.13
62072;BME280;48031;48.542;13.232;2022-12-31T12:27:55;97641.38;;;17.58;53.12
62072;BME280;48031;48.542;13.232;2022-12-31T12:32:00;97640.03;;;17.60;52.68
62072;BME280;48031;48.542;13.232;2022-12-31T12:36:07;97641.50;;;17.48;54.71
62072;BME280;48031;48.542;13.232;2022-12-31T12:40:21;97649.06;;;17.56;54.24
62072;BME280;48031;48.542;13.232;2022-12-31T12:44:34;97644.41;;;17.32;54.37
62072;BME280;48031;48.542;13.232;2022-12-31T12:48:41;97651.66;;;17.76;53.35
62072;BME280;48031;48.542;13.232;2022-12-31T13:01:42;97642.91;;;19.56;49.54
62072;BME280;48031;48.542;13.232;2022-12-31T13:06:08;97621.59;;;22.43;43.26
62072;BME280;48031;48.542;13.232;2022-12-31T13:19:10;97610.72;;;19.98;46.78
62072;BME280;48031;48.542;13.232;2022-12-31T13:23:26;97616.75;;;20.00;46.93
62072;BME280;48031;48.542;13.232;2022-12-31T13:27:39;97623.31;;;18.42;50.63
62072;BME280;48031;48.542;13.232;2022-12-31T13:31:44;97617.16;;;18.50;50.79
62072;BME280;48031;48.542;13.232;2022-12-31T13:36:04;97619.28;;;19.23;49.26
62072;BME280;48031;48.542;13.232;2022-12-31T13:40:18;97609.81;;;21.41;44.53
62072;BME280;48031;48.542;13.232;2022-12-31T13:44:28;97604.94;;;23.54;40.51
62072;BME280;48031;48.542;13.232;2022-12-31T13:48:35;97617.56;;;21.61;42.88
62072;BME280;48031;48.542;13.232;2022-12-31T13:57:11;97616.56;;;22.45;41.92
62072;BME280;48031;48.542;13.232;2022-12-31T14:01:22;97618.34;;;22.58;40.65
62072;BME280;48031;48.542;13.232;2022-12-31T14:05:39;97619.59;;;21.78;42.91
62072;BME280;48031;48.542;13.232;2022-12-31T14:09:43;97631.31;;;20.63;44.67
62072;BME280;48031;48.542;13.232;2022-12-31T14:18:28;97656.22;;;20.09;46.32
62072;BME280;48031;48.542;13.232;2022-12-31T14:26:46;97654.91;;;18.63;50.74
62072;BME280;48031;48.542;13.232;2022-12-31T14:30:50;97657.00;;;18.71;50.05
62072;BME280;48031;48.542;13.232;2022-12-31T14:43:29;97677.63;;;17.83;51.86
62072;BME280;48031;48.542;13.232;2022-12-31T14:51:53;97670.41;;;17.06;53.79
62072;BME280;48031;48.542;13.232;2022-12-31T14:56:04;97675.53;;;17.46;53.03
62072;BME280;48031;48.542;13.232;2022-12-31T15:00:49;97684.03;;;17.45;52.98
62072;BME280;48031;48.542;13.232;2022-12-31T15:05:03;97678.72;;;16.96;54.14
62072;BME280;48031;48.542;13.232;2022-12-31T15:21:40;97685.38;;;15.76;56.62
62072;BME280;48031;48.542;13.232;2022-12-31T15:25:52;97682.38;;;15.68;57.18
62072;BME280;48031;48.542;13.232;2022-12-31T15:29:55;97689.00;;;14.91;59.37
62072;BME280;48031;48.542;13.232;2022-12-31T15:34:06;97691.16;;;15.65;57.95
62072;BME280;48031;48.542;13.232;2022-12-31T15:42:46;97693.63;;;15.31;58.42
62072;BME280;48031;48.542;13.232;2022-12-31T15:47:00;97697.75;;;15.13;59.27
62072;BME280;48031;48.542;13.232;2022-12-31T15:51:03;97689.53;;;14.83;59.20
62072;BME280;48031;48.542;13.232;2022-12-31T15:55:06;97697.19;;;14.91;59.18
62072;BME280;48031;48.542;13.232;2022-12-31T15:59:12;97698.56;;;14.98;59.12
62072;BME280;48031;48.542;13.232;2022-12-31T16:03:22;97702.38;;;15.33;57.92
62072;BME280;48031;48.542;13.232;2022-12-31T16:07:26;97699.09;;;14.90;59.52
62072;BME280;48031;48.542;13.232;2022-12-31T16:11:29;97697.72;;;14.88;59.45
62072;BME280;48031;48.542;13.232;2022-12-31T16:15:32;97698.28;;;14.80;59.67
62072;BME280;48031;48.542;13.232;2022-12-31T16:19:41;97695.03;;;15.03;58.87
62072;BME280;48031;48.542;13.232;2022-12-31T16:23:52;97698.28;;;14.85;59.94
62072;BME280;48031;48.542;13.232;2022-12-31T16:27:54;97693.56;;;14.45;60.09
62072;BME280;48031;48.542;13.232;2022-12-31T16:31:56;97700.66;;;14.41;59.85
62072;BME280;48031;48.542;13.232;2022-12-31T16:36:00;97695.91;;;14.16;61.55
62072;BME280;48031;48.542;13.232;2022-12-31T16:40:17;97691.69;;;14.66;60.30
62072;BME280;48031;48.542;13.232;2022-12-31T16:44:28;97686.00;;;14.87;59.18
62072;BME280;48031;48.542;13.232;2022-12-31T16:48:30;97689.34;;;14.12;60.87
62072;BME280;48031;48.542;13.232;2022-12-31T16:52:36;97702.09;;;14.84;59.65
62072;BME280;48031;48.542;13.232;2022-12-31T16:56:41;97703.50;;;14.96;59.33
62072;BME280;48031;48.542;13.232;2022-12-31T17:00:44;97707.31;;;14.85;58.90
62072;BME280;48031;48.542;13.232;2022-12-31T17:04:48;97701.69;;;14.30;60.09
62072;BME280;48031;48.542;13.232;2022-12-31T17:13:01;97699.66;;;14.00;61.68
62072;BME280;48031;48.542;13.232;2022-12-31T17:17:31;97702.69;;;14.03;62.08
62072;BME280;48031;48.542;13.232;2022-12-31T17:21:36;97701.78;;;13.88;61.76
62072;BME280;48031;48.542;13.232;2022-12-31T17:25:38;97700.78;;;14.04;60.66
62072;BME280;48031;48.542;13.232;2022-12-31T17:29:40;97697.22;;;13.98;61.60
62072;BME280;48031;48.542;13.232;2022-12-31T17:33:43;97695.00;;;13.95;61.73
62072;BME280;48031;48.542;13.232;2022-12-31T17:37:45;97687.22;;;13.67;62.87
62072;BME280;48031;48.542;13.232;2022-12-31T17:41:49;97683.63;;;14.19;61.45
62072;BME280;48031;48.542;13.232;2022-12-31T17:45:53;97679.81;;;14.14;61.20
62072;BME280;48031;48.542;13.232;2022-12-31T17:49:55;97682.94;;;13.81;62.55
62072;BME280;48031;48.542;13.232;2022-12-31T17:53:58;97689.03;;;13.98;62.07
62072;BME280;48031;48.542;13.232;2022-12-31T17:58:03;97688.69;;;14.52;59.73
62072;BME280;48031;48.542;13.232;2022-12-31T18:02:09;97689.31;;;14.02;61.84
62072;BME280;48031;48.542;13.232;2022-12-31T18:06:14;97691.47;;;14.00;61.01
62072;BME280;48031;48.542;13.232;2022-12-31T18:10:19;97691.81;;;14.13;61.21
62072;BME280;48031;48.542;13.232;2022-12-31T18:14:22;97702.13;;;13.96;60.48
62072;BME280;48031;48.542;13.232;2022-12-31T18:18:27;97698.63;;;14.11;60.94
62072;BME280;48031;48.542;13.232;2022-12-31T18:22:29;97703.91;;;13.70;61.90
62072;BME280;48031;48.542;13.232;2022-12-31T18:26:31;97699.25;;;13.71;61.62
62072;BME280;48031;48.542;13.232;2022-12-31T18:30:34;97705.00;;;13.74;61.73
62072;BME280;48031;48.542;13.232;2022-12-31T18:34:36;97707.41;;;13.66;62.38
62072;BME280;48031;48.542;13.232;2022-12-31T18:38:39;97699.69;;;13.48;63.25
62072;BME280;48031;48.542;13.232;2022-12-31T18:42:41;97699.72;;;13.53;63.13
62072;BME280;48031;48.542;13.232;2022-12-31T18:46:43;97698.50;;;13.81;61.43
62072;BME280;48031;48.542;13.232;2022-12-31T18:50:46;97705.88;;;13.80;61.61
62072;BME280;48031;48.542;13.232;2022-12-31T18:54:49;97717.31;;;13.82;61.42
62072;BME280;48031;48.542;13.232;2022-12-31T18:58:51;97715.34;;;13.67;61.66
62072;BME280;48031;48.542;13.232;2022-12-31T19:02:53;97705.34;;;13.41;62.22
62072;BME280;48031;48.542;13.232;2022-12-31T19:06:55;97708.59;;;13.80;61.97
62072;BME280;48031;48.542;13.232;2022-12-31T19:10:57;97716.06;;;14.05;61.04
62072;BME280;48031;48.542;13.232;2022-12-31T19:14:58;97717.25;;;13.72;61.24
62072;BME280;48031;48.542;13.232;2022-12-31T19:19:00;97707.22;;;13.83;61.05
62072;BME280;48031;48.542;13.232;2022-12-31T19:23:13;97702.75;;;14.24;60.79
62072;BME280;48031;48.542;13.232;2022-12-31T19:27:16;97700.88;;;14.29;60.07
62072;BME280;48031;48.542;13.232;2022-12-31T19:31:20;97704.94;;;14.22;60.51
62072;BME280;48031;48.542;13.232;2022-12-31T19:35:22;97709.00;;;14.09;60.49
62072;BME280;48031;48.542;13.232;2022-12-31T19:39:24;97694.50;;;13.51;62.20
62072;BME280;48031;48.542;13.232;2022-12-31T19:43:26;97703.78;;;14.02;60.85
62072;BME280;48031;48.542;13.232;2022-12-31T19:47:28;97693.47;;;13.57;62.08
62072;BME280;48031;48.542;13.232;2022-12-31T19:51:29;97693.63;;;13.41;63.22
62072;BME280;48031;48.542;13.232;2022-12-31T19:55:31;97677.59;;;13.54;62.23
62072;BME280;48031;48.542;13.232;2022-12-31T19:59:33;97688.06;;;13.67;61.44
62072;BME280;48031;48.542;13.232;2022-12-31T20:03:35;97679.03;;;13.67;61.71
62072;BME280;48031;48.542;13.232;2022-12-31T20:07:37;97684.94;;;13.49;61.83
62072;BME280;48031;48.542;13.232;2022-12-31T20:11:39;97683.81;;;13.08;63.20
62072;BME280;48031;48.542;13.232;2022-12-31T20:15:40;97678.59;;;13.01;63.32
62072;BME280;48031;48.542;13.232;2022-12-31T20:19:48;97675.22;;;12.89;63.04
62072;BME280;48031;48.542;13.232;2022-12-31T20:23:51;97675.88;;;13.01;63.57
62072;BME280;48031;48.542;13.232;2022-12-31T20:27:54;97672.84;;;12.98;63.91
62072;BME280;48031;48.542;13.232;2022-12-31T20:31:55;97682.88;;;12.92;63.49
62072;BME280;48031;48.542;13.232;2022-12-31T20:36:03;97679.09;;;13.25;63.90
62072;BME280;48031;48.542;13.232;2022-12-31T20:40:06;97675.25;;;12.94;64.45
62072;BME280;48031;48.542;13.232;2022-12-31T20:44:08;97683.84;;;13.45;62.58
62072;BME280;48031;48.542;13.232;2022-12-31T20:48:10;97678.13;;;13.46;61.84
62072;BME280;48031;48.542;13.232;2022-12-31T20:52:11;97675.13;;;13.11;63.69
62072;BME280;48031;48.542;13.232;2022-12-31T20:56:14;97675.22;;;13.21;62.78
62072;BME280;48031;48.542;13.232;2022-12-31T21:00:16;97672.28;;;13.32;62.38
62072;BME280;48031;48.542;13.232;2022-12-31T21:04:18;97677.66;;;13.59;61.52
62072;BME280;48031;48.542;13.232;2022-12-31T21:08:20;97683.09;;;13.17;60.95
62072;BME280;48031;48.542;13.232;2022-12-31T21:12:21;97683.06;;;13.54;60.57
62072;BME280;48031;48.542;13.232;2022-12-31T21:16:42;97705.63;;;12.76;62.40
62072;BME280;48031;48.542;13.232;2022-12-31T21:20:48;97715.38;;;12.72;61.69
62072;BME280;48031;48.542;13.232;2022-12-31T21:24:50;97703.28;;;12.58;60.81
62072;BME280;48031;48.542;13.232;2022-12-31T21:28:52;97722.00;;;12.27;62.21
62072;BME280;48031;48.542;13.232;2022-12-31T21:32:54;97717.38;;;12.06;64.74
62072;BME280;48031;48.542;13.232;2022-12-31T21:36:56;97721.66;;;12.45;63.62
62072;BME280;48031;48.542;13.232;2022-12-31T21:41:02;97728.34;;;13.18;61.53
62072;BME280;48031;48.542;13.232;2022-12-31T21:45:04;97736.72;;;12.53;63.82
62072;BME280;48031;48.542;13.232;2022-12-31T21:49:06;97749.50;;;12.53;63.28
62072;BME280;48031;48.542;13.232;2022-12-31T21:53:08;97783.75;;;11.33;62.52
62072;BME280;48031;48.542;13.232;2022-12-31T21:57:10;97794.88;;;11.15;63.35
62072;BME280;48031;48.542;13.232;2022-12-31T22:01:19;97787.53;;;11.65;64.19
62072;BME280;48031;48.542;13.232;2022-12-31T22:06:21;97788.91;;;12.23;64.22
62072;BME280;48031;48.542;13.232;2022-12-31T22:10:14;97787.31;;;12.05;62.74
62072;BME280;48031;48.542;13.232;2022-12-31T22:14:16;97806.16;;;11.40;62.90
62072;BME280;48031;48.542;13.232;2022-12-31T22:18:18;97807.97;;;11.35;63.72
62072;BME280;48031;48.542;13.232;2022-12-31T22:22:20;97805.56;;;11.55;63.63
62072;BME280;48031;48.542;13.232;2022-12-31T22:26:24;97798.75;;;11.52;65.05
62072;BME280;48031;48.542;13.232;2022-12-31T22:30:27;97811.63;;;11.74;62.76
62072;BME280;48031;48.542;13.232;2022-12-31T22:34:29;97783.28;;;11.53;66.98
62072;BME280;48031;48.542;13.232;2022-12-31T22:38:31;97781.53;;;11.13;68.02
62072;BME280;48031;48.542;13.232;2022-12-31T22:42:33;97761.53;;;11.19;68.54
62072;BME280;48031;48.542;13.232;2022-12-31T22:46:35;97759.34;;;11.55;68.92
62072;BME280;48031;48.542;13.232;2022-12-31T22:50:37;97756.56;;;12.05;67.59
62072;BME280;48031;48.542;13.232;2022-12-31T22:54:39;97774.84;;;12.31;66.84
62072;BME280;48031;48.542;13.232;2022-12-31T22:58:41;97763.84;;;12.97;64.41
62072;BME280;48031;48.542;13.232;2022-12-31T23:02:43;97769.59;;;12.46;63.88
62072;BME280;48031;48.542;13.232;2022-12-31T23:06:45;97796.50;;;11.49;62.59
62072;BME280;48031;48.542;13.232;2022-12-31T23:10:48;97769.59;;;12.03;60.56
62072;BME280;48031;48.542;13.232;2022-12-31T23:15:09;97755.34;;;11.57;62.05
62072;BME280;48031;48.542;13.232;2022-12-31T23:19:29;97753.88;;;11.72;61.25
62072;BME280;48031;48.542;13.232;2022-12-31T23:23:52;97750.56;;;12.03;64.37
62072;BME280;48031;48.542;13.232;2022-12-31T23:27:54;97750.28;;;11.66;66.25
62072;BME280;48031;48.542;13.232;2022-12-31T23:31:56;97756.06;;;11.70;66.09
62072;BME280;48031;48.542;13.232;2022-12-31T23:36:04;97742.41;;;12.03;66.63
62072;BME280;48031;48.542;13.232;2022-12-31T23:40:07;97742.88;;;12.00;66.45
62072;BME280;48031;48.542;13.232;2022-12-31T23:44:09;97748.19;;;12.33;65.71
62072;BME280;48031;48.542;13.232;2022-12-31T23:48:12;97773.53;;;12.12;63.11
62072;BME280;48031;48.542;13.232;2022-12-31T23:52:14;97773.38;;;10.97;64.22
62072;BME280;48031;48.542;13.232;2022-12-31T23:56:17;97774.16;;;11.25;66.15
